Time;durP1;ratioP1;P1;durP2;ratioP2;P2;SDS_P1;SDS_P2;PMS_P1;PMS_P2;Temp;Humidity;BMP_temperature;BMP_pressure;BME280_temperature;BME280_humidity;BME280_pressure;Samples;Min_cycle;Max_cycle;Signal;HPM_P1;HPM_P2
2024/01/20 00:01:38;;;;;;;;;;;;;;;4.73;75.47;102043.69;7333581;19;19934;-67
2024/01/20 00:04:05;;;;;;;;;;;;;;;4.76;75.38;102045.28;7317119;19;19926;-68
2024/01/20 00:06:38;;;;;;;;;;;;;;;4.82;75.41;102054.53;7336212;19;20314;-68
2024/01/20 00:09:08;;;;;;;;;;;;;;;4.84;76.09;102057.88;7329710;19;20010;-66
2024/01/20 00:11:39;;;;;;;;;;;;;;;4.85;75.78;102049.97;7327303;19;19931;-68
2024/01/20 00:14:07;;;;;;;;;;;;;;;4.87;76.41;102061.19;7334654;19;21164;-69
2024/01/20 00:16:34;;;;;;;;;;;;;;;4.89;76.18;102055.84;7329763;19;19935;-67
2024/01/20 00:19:01;;;;;;;;;;;;;;;4.90;76.07;102052.31;7323785;19;19919;-68
2024/01/20 00:21:29;;;;;;;;;;;;;;;4.87;75.71;102058.56;7333711;19;19982;-68
2024/01/20 00:23:56;;;;;;;;;;;;;;;4.84;75.48;102052.66;7330838;19;19982;-66
2024/01/20 00:26:24;;;;;;;;;;;;;;;4.82;74.93;102055.38;7327776;19;19951;-68
2024/01/20 00:28:52;;;;;;;;;;;;;;;4.77;74.60;102046.97;7339446;19;19930;-68
2024/01/20 00:31:21;;;;;;;;;;;;;;;4.75;74.44;102048.81;7344611;19;20458;-65
2024/01/20 00:33:48;;;;;;;;;;;;;;;4.75;74.34;102048.81;7341378;19;19915;-66
2024/01/20 00:36:23;;;;;;;;;;;;;;;4.65;74.33;102050.25;7339109;19;20169;-66
2024/01/20 00:38:50;;;;;;;;;;;;;;;4.62;74.37;102045.22;7334465;19;19923;-67
2024/01/20 00:41:18;;;;;;;;;;;;;;;4.62;74.65;102047.81;7337135;19;21751;-66
2024/01/20 00:43:48;;;;;;;;;;;;;;;4.59;74.82;102040.16;7328856;19;19922;-67
2024/01/20 00:46:15;;;;;;;;;;;;;;;4.59;75.00;102035.78;7318072;19;20388;-66
2024/01/20 00:48:42;;;;;;;;;;;;;;;4.64;75.61;102040.75;7333604;19;19919;-67
2024/01/20 00:51:09;;;;;;;;;;;;;;;4.64;75.38;102041.59;7324929;19;20742;-67
2024/01/20 00:53:36;;;;;;;;;;;;;;;4.68;76.66;102034.44;7324550;19;19951;-68
2024/01/20 00:56:03;;;;;;;;;;;;;;;4.65;75.56;102027.63;7321653;19;19919;-66
2024/01/20 00:58:33;;;;;;;;;;;;;;;4.70;77.03;102024.78;7321833;19;19919;-68
2024/01/20 01:01:01;;;;;;;;;;;;;;;4.85;83.35;102030.88;7335946;19;21801;-68
2024/01/20 01:03:28;;;;;;;;;;;;;;;4.89;84.50;102033.22;7334347;19;19930;-67
2024/01/20 01:05:55;;;;;;;;;;;;;;;4.87;82.97;102027.28;7336049;19;19907;-68
2024/01/20 01:08:22;;;;;;;;;;;;;;;4.89;82.35;102024.56;7340030;19;19915;-67
2024/01/20 01:10:49;;;;;;;;;;;;;;;4.88;81.51;102021.13;7337327;19;21079;-67
2024/01/20 01:13:16;;;;;;;;;;;;;;;4.89;80.47;102028.03;7330610;19;19975;-66
2024/01/20 01:15:45;;;;;;;;;;;;;;;4.83;76.96;102036.19;7328728;19;19919;-66
2024/01/20 01:18:20;;;;;;;;;;;;;;;4.82;76.73;102031.91;7330343;19;20244;-68
2024/01/20 01:20:47;;;;;;;;;;;;;;;4.83;76.75;102037.94;7331521;19;20170;-66
2024/01/20 01:23:14;;;;;;;;;;;;;;;4.86;77.42;102036.03;7329445;19;20881;-67
2024/01/20 01:25:41;;;;;;;;;;;;;;;4.87;76.66;102048.13;7323117;19;19923;-68
2024/01/20 01:28:13;;;;;;;;;;;;;;;4.86;76.60;102038.63;7324011;19;19930;-66
2024/01/20 01:30:40;;;;;;;;;;;;;;;4.88;77.00;102049.78;7327716;19;20361;-66
2024/01/20 01:33:07;;;;;;;;;;;;;;;4.90;76.73;102050.56;7315491;19;20024;-67
2024/01/20 01:35:40;;;;;;;;;;;;;;;4.92;78.69;102050.50;7323438;19;19954;-67
2024/01/20 01:38:10;;;;;;;;;;;;;;;4.91;78.12;102048.81;7327115;19;19929;-66
2024/01/20 01:40:37;;;;;;;;;;;;;;;4.92;78.00;102045.28;7326574;19;19926;-67
2024/01/20 01:43:04;;;;;;;;;;;;;;;4.94;78.64;102048.63;7322871;19;20572;-68
2024/01/20 01:45:32;;;;;;;;;;;;;;;4.95;79.18;102040.72;7323089;19;21600;-67
2024/01/20 01:47:59;;;;;;;;;;;;;;;4.95;78.57;102043.31;7317167;19;20687;-68
2024/01/20 01:50:27;;;;;;;;;;;;;;;4.95;78.00;102045.94;7331892;19;19930;-67
2024/01/20 01:52:57;;;;;;;;;;;;;;;4.92;77.56;102046.13;7330107;19;20940;-70
2024/01/20 01:55:24;;;;;;;;;;;;;;;4.94;77.84;102053.81;7329778;19;19923;-67
2024/01/20 01:57:55;;;;;;;;;;;;;;;4.95;78.71;102047.69;7323605;19;20002;-66
2024/01/20 02:00:22;;;;;;;;;;;;;;;4.94;77.39;102059.88;7327990;19;19930;-65
2024/01/20 02:02:49;;;;;;;;;;;;;;;4.91;76.07;102057.47;7320939;19;19942;-67
2024/01/20 02:05:16;;;;;;;;;;;;;;;4.84;75.17;102058.72;7325789;19;19919;-67
2024/01/20 02:07:43;;;;;;;;;;;;;;;4.82;75.11;102063.19;7322202;19;19918;-67
2024/01/20 02:10:11;;;;;;;;;;;;;;;4.79;74.89;102059.91;7320862;19;19970;-66
2024/01/20 02:12:38;;;;;;;;;;;;;;;4.77;74.82;102057.41;7323317;19;19925;-66
2024/01/20 02:15:06;;;;;;;;;;;;;;;4.74;75.06;102055.78;7320845;19;19919;-65
2024/01/20 02:17:35;;;;;;;;;;;;;;;4.70;74.99;102056.88;7332530;19;19911;-67
2024/01/20 02:20:02;;;;;;;;;;;;;;;4.66;75.19;102055.38;7320045;19;20006;-66
2024/01/20 02:22:29;;;;;;;;;;;;;;;4.61;74.94;102061.78;7326394;19;19915;-66
2024/01/20 02:24:56;;;;;;;;;;;;;;;4.55;75.16;102056.88;7327973;19;20891;-67
2024/01/20 02:27:23;;;;;;;;;;;;;;;4.55;75.57;102051.69;7323456;19;19949;-67
2024/01/20 02:29:50;;;;;;;;;;;;;;;4.53;75.71;102054.34;7329565;19;19919;-67
2024/01/20 02:32:17;;;;;;;;;;;;;;;4.55;75.87;102059.50;7320991;19;19927;-67
2024/01/20 02:34:43;;;;;;;;;;;;;;;4.56;76.36;102059.41;7315890;19;19918;-67
2024/01/20 02:37:10;;;;;;;;;;;;;;;4.58;76.42;102059.31;7330359;19;19923;-68
2024/01/20 02:39:37;;;;;;;;;;;;;;;4.57;76.30;102063.69;7318465;19;19918;-67
2024/01/20 02:42:08;;;;;;;;;;;;;;;4.59;76.90;102064.44;7327816;19;19982;-68
2024/01/20 02:44:35;;;;;;;;;;;;;;;4.59;77.06;102061.00;7339885;19;20996;-67
2024/01/20 02:47:02;;;;;;;;;;;;;;;4.60;76.76;102066.13;7333308;19;19946;-66
2024/01/20 02:49:29;;;;;;;;;;;;;;;4.59;76.90;102054.03;7321767;19;19919;-68
2024/01/20 02:51:56;;;;;;;;;;;;;;;4.58;77.14;102054.09;7323617;19;20770;-67
2024/01/20 02:54:23;;;;;;;;;;;;;;;4.58;77.30;102047.13;7323376;19;20620;-67
2024/01/20 02:56:50;;;;;;;;;;;;;;;4.61;77.89;102046.97;7319657;19;19923;-66
2024/01/20 02:59:17;;;;;;;;;;;;;;;4.62;78.61;102056.44;7320304;19;21476;-68
2024/01/20 03:01:44;;;;;;;;;;;;;;;4.64;79.20;102062.44;7322873;19;19927;-66
2024/01/20 03:04:13;;;;;;;;;;;;;;;4.63;79.38;102052.94;7324237;19;19947;-66
2024/01/20 03:06:40;;;;;;;;;;;;;;;4.65;80.23;102053.69;7314310;19;19922;-67
2024/01/20 03:09:07;;;;;;;;;;;;;;;4.71;81.71;102057.72;7319872;19;19918;-66
2024/01/20 03:11:37;;;;;;;;;;;;;;;4.76;81.90;102055.72;7333846;19;19923;-66
2024/01/20 03:14:04;;;;;;;;;;;;;;;4.84;83.67;102056.13;7327996;19;20027;-66
2024/01/20 03:16:31;;;;;;;;;;;;;;;4.86;83.43;102056.03;7318763;19;19922;-65
2024/01/20 03:18:57;;;;;;;;;;;;;;;4.85;83.37;102059.56;7327375;19;19927;-66
2024/01/20 03:21:24;;;;;;;;;;;;;;;4.83;83.61;102059.66;7319399;19;20002;-66
2024/01/20 03:23:53;;;;;;;;;;;;;;;4.85;84.07;102055.19;7326257;19;19923;-67
2024/01/20 03:26:22;;;;;;;;;;;;;;;4.85;83.95;102060.41;7329607;19;19919;-66
2024/01/20 03:28:49;;;;;;;;;;;;;;;4.87;84.55;102061.19;7325947;19;19975;-67
2024/01/20 03:31:16;;;;;;;;;;;;;;;4.88;84.31;102059.38;7324966;19;19919;-66
2024/01/20 03:33:43;;;;;;;;;;;;;;;4.90;84.63;102057.53;7319743;19;19915;-68
2024/01/20 03:36:11;;;;;;;;;;;;;;;4.92;84.74;102060.91;7322846;19;19919;-68
2024/01/20 03:38:38;;;;;;;;;;;;;;;4.96;85.55;102055.44;7317680;19;20002;-68
2024/01/20 03:41:06;;;;;;;;;;;;;;;4.96;85.54;102052.84;7320787;19;19963;-67
2024/01/20 03:43:33;;;;;;;;;;;;;;;4.98;85.39;102050.13;7318092;19;19923;-67
2024/01/20 03:46:00;;;;;;;;;;;;;;;4.95;84.83;102056.34;7338794;19;20356;-67
2024/01/20 03:48:27;;;;;;;;;;;;;;;4.94;84.77;102049.47;7338586;19;19930;-67
2024/01/20 03:50:54;;;;;;;;;;;;;;;4.96;85.24;102045.00;7341074;19;19922;-68
2024/01/20 03:53:20;;;;;;;;;;;;;;;4.94;85.31;102051.22;7341220;19;19926;-67
2024/01/20 03:55:47;;;;;;;;;;;;;;;4.93;85.46;102044.31;7332755;19;20171;-67
2024/01/20 03:58:14;;;;;;;;;;;;;;;4.92;85.43;102040.06;7330429;19;20275;-65
2024/01/20 04:00:43;;;;;;;;;;;;;;;4.93;85.82;102049.53;7323315;19;19911;-66
2024/01/20 04:03:10;;;;;;;;;;;;;;;4.93;86.55;102044.31;7333575;19;19937;-65
2024/01/20 04:05:39;;;;;;;;;;;;;;;4.88;85.94;102044.59;7323160;19;19931;-66
2024/01/20 04:08:10;;;;;;;;;;;;;;;4.84;85.50;102044.84;7313508;19;19927;-69
2024/01/20 04:10:36;;;;;;;;;;;;;;;4.82;85.06;102044.09;7330011;19;20022;-67
2024/01/20 04:13:03;;;;;;;;;;;;;;;4.82;85.01;102047.56;7325755;19;20618;-68
2024/01/20 04:15:30;;;;;;;;;;;;;;;4.80;84.41;102049.41;7339081;19;20664;-67
2024/01/20 04:17:57;;;;;;;;;;;;;;;4.79;84.42;102047.72;7327712;19;19933;-66
2024/01/20 04:20:24;;;;;;;;;;;;;;;4.72;84.59;102038.56;7321524;19;19934;-67
2024/01/20 04:22:51;;;;;;;;;;;;;;;4.77;84.42;102043.53;7336097;19;20600;-67
2024/01/20 04:25:18;;;;;;;;;;;;;;;4.80;84.56;102043.34;7330362;19;19922;-67
2024/01/20 04:27:45;;;;;;;;;;;;;;;4.81;84.32;102034.59;7324301;19;19921;-67
2024/01/20 04:30:12;;;;;;;;;;;;;;;4.82;84.18;102046.72;7324012;19;19922;-67
2024/01/20 04:32:38;;;;;;;;;;;;;;;4.85;84.51;102044.75;7330140;19;19919;-68
2024/01/20 04:35:06;;;;;;;;;;;;;;;4.87;84.51;102031.66;7331083;19;21314;-68
2024/01/20 04:37:33;;;;;;;;;;;;;;;4.90;84.70;102034.91;7326318;19;20588;-68
2024/01/20 04:40:00;;;;;;;;;;;;;;;4.93;84.86;102036.50;7326272;19;21128;-67
2024/01/20 04:42:27;;;;;;;;;;;;;;;4.97;84.35;102030.22;7320779;19;19918;-67
2024/01/20 04:44:54;;;;;;;;;;;;;;;4.98;84.23;102026.66;7322234;19;19921;-68
2024/01/20 04:47:21;;;;;;;;;;;;;;;4.95;83.93;102035.50;7325598;19;19918;-68
2024/01/20 04:49:51;;;;;;;;;;;;;;;4.98;83.28;102032.72;7322533;19;20403;-66
2024/01/20 04:52:19;;;;;;;;;;;;;;;5.04;83.26;102034.13;7324251;19;19925;-67
2024/01/20 04:54:46;;;;;;;;;;;;;;;5.04;82.68;102041.94;7324224;19;20067;-67
2024/01/20 04:57:13;;;;;;;;;;;;;;;5.03;82.82;102032.44;7324605;19;19933;-68
2024/01/20 04:59:40;;;;;;;;;;;;;;;5.04;82.57;102031.53;7322008;19;19927;-66
2024/01/20 05:02:07;;;;;;;;;;;;;;;5.03;83.01;102037.66;7328106;19;19953;-66
2024/01/20 05:04:34;;;;;;;;;;;;;;;5.04;82.48;102034.97;7319669;19;19918;-67
2024/01/20 05:07:01;;;;;;;;;;;;;;;5.08;82.54;102031.25;7318720;19;19918;-67
2024/01/20 05:09:28;;;;;;;;;;;;;;;5.10;82.50;102029.41;7326253;19;19929;-68
2024/01/20 05:11:55;;;;;;;;;;;;;;;5.11;82.71;102027.66;7326248;19;20603;-69
2024/01/20 05:14:22;;;;;;;;;;;;;;;5.11;82.78;102032.88;7331134;19;19951;-67
2024/01/20 05:16:49;;;;;;;;;;;;;;;5.11;82.51;102025.88;7322049;19;19959;-67
2024/01/20 05:19:16;;;;;;;;;;;;;;;5.08;82.37;102035.63;7321137;19;20839;-67
2024/01/20 05:21:44;;;;;;;;;;;;;;;5.11;82.76;102032.88;7334155;19;19918;-68
2024/01/20 05:24:10;;;;;;;;;;;;;;;5.14;82.53;102030.91;7319126;19;19921;-68
2024/01/20 05:26:38;;;;;;;;;;;;;;;5.16;82.79;102025.63;7330309;19;19926;-68
2024/01/20 05:29:05;;;;;;;;;;;;;;;5.19;83.49;102028.03;7330713;19;20484;-67
2024/01/20 05:31:32;;;;;;;;;;;;;;;5.14;82.97;102038.72;7329775;19;20846;-66
2024/01/20 05:34:00;;;;;;;;;;;;;;;5.18;82.97;102035.97;7319891;19;19922;-66
2024/01/20 05:36:27;;;;;;;;;;;;;;;5.21;83.60;102034.03;7333001;19;19922;-67
2024/01/20 05:38:54;;;;;;;;;;;;;;;5.24;83.60;102044.25;7320906;19;19994;-66
2024/01/20 05:41:21;;;;;;;;;;;;;;;5.21;83.69;102039.22;7319575;19;19983;-67
2024/01/20 05:43:48;;;;;;;;;;;;;;;5.23;84.08;102036.53;7323478;19;19925;-66
2024/01/20 05:46:19;;;;;;;;;;;;;;;5.24;83.72;102028.59;7328645;19;20042;-66
2024/01/20 05:48:46;;;;;;;;;;;;;;;5.28;84.07;102040.56;7329814;19;20320;-65
2024/01/20 05:51:14;;;;;;;;;;;;;;;5.31;84.20;102034.31;7321086;19;19949;-66
2024/01/20 05:53:41;;;;;;;;;;;;;;;5.29;83.88;102025.72;7328966;19;21667;-67
2024/01/20 05:56:07;;;;;;;;;;;;;;;5.31;83.90;102018.66;7320216;19;19959;-66
2024/01/20 05:58:34;;;;;;;;;;;;;;;5.32;83.63;102026.41;7325796;19;19959;-68
2024/01/20 06:01:02;;;;;;;;;;;;;;;5.32;83.79;102021.19;7319372;19;20660;-68
2024/01/20 06:03:29;;;;;;;;;;;;;;;5.26;83.79;102031.97;7329168;19;19923;-67
2024/01/20 06:05:56;;;;;;;;;;;;;;;5.32;83.87;102026.41;7328718;19;20349;-67
2024/01/20 06:08:23;;;;;;;;;;;;;;;5.31;83.57;102026.50;7320069;19;20485;-67
2024/01/20 06:10:51;;;;;;;;;;;;;;;5.29;83.53;102025.72;7320257;19;19998;-66
2024/01/20 06:13:18;;;;;;;;;;;;;;;5.29;83.50;102023.97;7320364;19;19923;-68
2024/01/20 06:15:45;;;;;;;;;;;;;;;5.30;84.34;102030.88;7320868;19;20007;-66
2024/01/20 06:18:12;;;;;;;;;;;;;;;5.30;84.00;102025.66;7323620;19;19926;-68
2024/01/20 06:20:39;;;;;;;;;;;;;;;5.31;84.32;102023.88;7319403;19;19923;-66
2024/01/20 06:23:06;;;;;;;;;;;;;;;5.32;84.15;102029.03;7319608;19;20024;-68
2024/01/20 06:25:33;;;;;;;;;;;;;;;5.30;83.90;102032.63;7317830;19;20349;-67
2024/01/20 06:28:00;;;;;;;;;;;;;;;5.33;84.10;102030.72;7321875;19;19929;-66
2024/01/20 06:30:27;;;;;;;;;;;;;;;5.36;83.60;102034.91;7328239;19;19933;-67
2024/01/20 06:32:54;;;;;;;;;;;;;;;5.36;83.72;102037.50;7329824;19;20425;-66
2024/01/20 06:35:21;;;;;;;;;;;;;;;5.35;83.73;102031.44;7332949;19;19923;-67
2024/01/20 06:37:48;;;;;;;;;;;;;;;5.41;83.69;102031.09;7327722;19;20223;-68
2024/01/20 06:40:16;;;;;;;;;;;;;;;5.42;83.94;102031.94;7317945;19;19914;-66
2024/01/20 06:42:43;;;;;;;;;;;;;;;5.43;83.70;102037.06;7325753;19;21511;-68
2024/01/20 06:45:10;;;;;;;;;;;;;;;5.44;84.17;102033.50;7324215;19;19955;-68
2024/01/20 06:47:37;;;;;;;;;;;;;;;5.49;84.33;102041.06;7323280;19;20340;-68
2024/01/20 06:50:04;;;;;;;;;;;;;;;5.51;84.63;102037.44;7319818;19;19915;-66
2024/01/20 06:52:32;;;;;;;;;;;;;;;5.50;84.48;102043.59;7314909;19;19950;-67
2024/01/20 06:54:59;;;;;;;;;;;;;;;5.53;84.43;102030.38;7321345;19;19942;-67
2024/01/20 06:57:26;;;;;;;;;;;;;;;5.52;84.41;102038.28;7323144;19;20938;-68
2024/01/20 06:59:54;;;;;;;;;;;;;;;5.57;85.31;102036.25;7323209;19;19955;-67
2024/01/20 07:02:21;;;;;;;;;;;;;;;5.58;84.88;102036.16;7317126;19;20208;-68
2024/01/20 07:04:47;;;;;;;;;;;;;;;5.55;84.57;102041.56;7322238;19;19919;-66
2024/01/20 07:07:14;;;;;;;;;;;;;;;5.60;85.19;102046.50;7317663;19;19935;-68
2024/01/20 07:09:41;;;;;;;;;;;;;;;5.61;84.71;102040.34;7323848;19;19919;-67
2024/01/20 07:12:08;;;;;;;;;;;;;;;5.58;84.96;102035.31;7319290;19;19921;-67
2024/01/20 07:14:35;;;;;;;;;;;;;;;5.56;85.24;102043.25;7321437;19;20723;-66
2024/01/20 07:17:05;;;;;;;;;;;;;;;5.53;85.04;102033.00;7335462;19;19971;-68
2024/01/20 07:19:32;;;;;;;;;;;;;;;5.53;85.23;102032.16;7339900;19;19946;-67
2024/01/20 07:21:59;;;;;;;;;;;;;;;5.55;86.01;102030.28;7344658;19;19930;-66
2024/01/20 07:24:27;;;;;;;;;;;;;;;5.60;86.04;102038.66;7339090;19;19919;-68
2024/01/20 07:26:54;;;;;;;;;;;;;;;5.58;85.35;102033.56;7329891;19;20805;-67
2024/01/20 07:29:22;;;;;;;;;;;;;;;5.57;85.33;102041.47;7321322;19;20860;-67
2024/01/20 07:31:50;;;;;;;;;;;;;;;5.44;84.39;102035.28;7330283;19;19919;-66
2024/01/20 07:34:17;;;;;;;;;;;;;;;5.44;84.33;102046.56;7338113;19;19923;-66
2024/01/20 07:36:45;;;;;;;;;;;;;;;5.48;84.61;102049.84;7326237;19;19965;-67
2024/01/20 07:39:12;;;;;;;;;;;;;;;5.46;84.54;102052.53;7335197;19;19922;-68
2024/01/20 07:41:39;;;;;;;;;;;;;;;5.47;84.35;102046.41;7328797;19;19919;-67
2024/01/20 07:44:06;;;;;;;;;;;;;;;5.45;84.52;102050.00;7322246;19;19926;-67
2024/01/20 07:46:33;;;;;;;;;;;;;;;5.44;84.29;102046.56;7330388;19;20002;-66
2024/01/20 07:48:59;;;;;;;;;;;;;;;5.52;84.77;102049.56;7319216;19;19929;-66
2024/01/20 07:51:26;;;;;;;;;;;;;;;5.55;85.25;102056.38;7328332;19;19914;-66
2024/01/20 07:53:54;;;;;;;;;;;;;;;5.52;84.70;102053.94;7333680;19;21246;-67
2024/01/20 07:56:21;;;;;;;;;;;;;;;5.56;84.81;102039.78;7330101;19;19944;-68
2024/01/20 07:58:51;;;;;;;;;;;;;;;5.55;84.46;102049.38;7322411;19;19926;-67
2024/01/20 08:01:18;;;;;;;;;;;;;;;5.53;84.43;102053.03;7334769;19;20687;-68
2024/01/20 08:03:45;;;;;;;;;;;;;;;5.55;84.23;102049.38;7324437;19;21271;-67
2024/01/20 08:06:12;;;;;;;;;;;;;;;5.58;84.61;102040.56;7328590;19;20677;-69
2024/01/20 08:08:39;;;;;;;;;;;;;;;5.61;84.69;102050.78;7314444;19;19922;-67
2024/01/20 08:11:06;;;;;;;;;;;;;;;5.58;84.82;102051.00;7327989;19;20685;-66
2024/01/20 08:13:33;;;;;;;;;;;;;;;5.59;84.97;102053.50;7319786;19;20041;-68
2024/01/20 08:16:00;;;;;;;;;;;;;;;5.63;85.06;102048.09;7333903;19;20018;-68
2024/01/20 08:18:27;;;;;;;;;;;;;;;5.66;85.15;102053.97;7326456;19;19930;-66
2024/01/20 08:20:54;;;;;;;;;;;;;;;5.69;84.84;102050.34;7322713;19;20466;-66
2024/01/20 08:23:21;;;;;;;;;;;;;;;5.72;84.70;102055.38;7326941;19;19919;-65
2024/01/20 08:25:48;;;;;;;;;;;;;;;5.74;85.00;102051.72;7334617;19;19927;-67
2024/01/20 08:28:15;;;;;;;;;;;;;;;5.76;85.21;102047.28;7326576;19;20482;-66
2024/01/20 08:30:41;;;;;;;;;;;;;;;5.80;84.89;102051.38;7323219;19;19918;-67
2024/01/20 08:33:08;;;;;;;;;;;;;;;5.78;85.13;102052.41;7324813;19;19931;-68
2024/01/20 08:35:35;;;;;;;;;;;;;;;5.80;84.64;102040.94;7336403;19;19990;-65
2024/01/20 08:38:03;;;;;;;;;;;;;;;5.87;85.10;102042.28;7323466;19;19947;-66
2024/01/20 08:40:30;;;;;;;;;;;;;;;5.88;84.72;102041.34;7340477;19;19950;-66
2024/01/20 08:42:57;;;;;;;;;;;;;;;5.94;84.72;102043.56;7334049;19;19922;-67
2024/01/20 08:45:24;;;;;;;;;;;;;;;5.97;84.35;102043.41;7335994;19;20197;-68
2024/01/20 08:47:51;;;;;;;;;;;;;;;6.05;84.53;102045.53;7327149;19;19923;-68
2024/01/20 08:50:19;;;;;;;;;;;;;;;6.03;83.88;102050.03;7326138;19;19919;-66
2024/01/20 08:52:46;;;;;;;;;;;;;;;6.06;83.85;102051.59;7318066;19;19933;-68
2024/01/20 08:55:13;;;;;;;;;;;;;;;6.07;84.12;102051.53;7321051;19;19953;-67
2024/01/20 08:57:40;;;;;;;;;;;;;;;6.10;84.43;102045.25;7329099;19;20038;-66
2024/01/20 09:00:07;;;;;;;;;;;;;;;6.14;84.50;102052.84;7329911;19;19923;-67
2024/01/20 09:02:34;;;;;;;;;;;;;;;6.11;83.76;102047.78;7327031;19;19919;-68
2024/01/20 09:05:01;;;;;;;;;;;;;;;6.12;83.47;102046.84;7328762;19;19919;-67
2024/01/20 09:07:28;;;;;;;;;;;;;;;6.18;84.40;102050.88;7335435;19;19950;-67
2024/01/20 09:09:56;;;;;;;;;;;;;;;6.19;84.22;102050.78;7322226;19;21078;-68
2024/01/20 09:12:25;;;;;;;;;;;;;;;6.24;83.67;102045.28;7320151;19;20521;-70
2024/01/20 09:14:51;;;;;;;;;;;;;;;6.24;83.51;102053.94;7321716;19;20302;-66
2024/01/20 09:17:18;;;;;;;;;;;;;;;6.27;83.53;102055.53;7329642;19;19923;-66
2024/01/20 09:19:45;;;;;;;;;;;;;;;6.27;82.91;102056.38;7318086;19;20018;-68
2024/01/20 09:22:12;;;;;;;;;;;;;;;6.32;83.10;102058.69;7338479;19;19922;-67
2024/01/20 09:24:39;;;;;;;;;;;;;;;6.35;83.24;102048.88;7334134;19;20731;-66
2024/01/20 09:27:06;;;;;;;;;;;;;;;6.35;82.77;102061.09;7320100;19;20161;-66
2024/01/20 09:29:33;;;;;;;;;;;;;;;6.33;82.93;102042.94;7326974;19;19923;-67
2024/01/20 09:31:59;;;;;;;;;;;;;;;6.37;83.14;102047.03;7324097;19;21497;-66
2024/01/20 09:34:28;;;;;;;;;;;;;;;6.41;83.04;102048.50;7333383;19;19919;-68
2024/01/20 09:36:55;;;;;;;;;;;;;;;6.44;82.97;102050.94;7327250;19;20632;-66
2024/01/20 09:39:22;;;;;;;;;;;;;;;6.53;82.99;102057.34;7335814;19;20642;-66
2024/01/20 09:41:51;;;;;;;;;;;;;;;6.58;83.44;102054.44;7331771;19;19923;-67
2024/01/20 09:44:20;;;;;;;;;;;;;;;6.64;83.29;102051.47;7328325;19;19918;-66
2024/01/20 09:46:47;;;;;;;;;;;;;;;6.67;82.75;102051.25;7331251;19;19918;-66
2024/01/20 09:49:14;;;;;;;;;;;;;;;6.67;82.65;102048.63;7331748;19;20020;-67
2024/01/20 09:51:51;;;;;;;;;;;;;;;6.67;82.48;102052.09;7338005;19;20356;-66
2024/01/20 09:54:22;;;;;;;;;;;;;;;6.62;82.71;102048.94;7335464;19;20026;-67
2024/01/20 09:56:49;;;;;;;;;;;;;;;6.62;82.51;102050.69;7338032;19;19923;-67
2024/01/20 09:59:17;;;;;;;;;;;;;;;6.65;82.75;102050.53;7334903;19;20749;-66
2024/01/20 10:01:45;;;;;;;;;;;;;;;6.74;82.94;102050.78;7305378;19;20627;-67
2024/01/20 10:04:15;;;;;;;;;;;;;;;6.82;82.95;102056.34;7322543;19;20394;-67
2024/01/20 10:06:42;;;;;;;;;;;;;;;6.85;82.67;102056.16;7327244;19;19937;-67
2024/01/20 10:09:09;;;;;;;;;;;;;;;6.85;82.21;102061.41;7321127;19;20278;-66
2024/01/20 10:11:36;;;;;;;;;;;;;;;6.87;82.08;102058.66;7331867;19;20261;-69
2024/01/20 10:14:03;;;;;;;;;;;;;;;6.86;82.21;102057.81;7323304;19;19922;-66
2024/01/20 10:16:42;;;;;;;;;;;;;;;6.94;82.54;102057.34;7325084;19;20599;-67
2024/01/20 10:19:09;;;;;;;;;;;;;;;7.00;82.11;102046.50;7326444;19;19927;-68
2024/01/20 10:21:40;;;;;;;;;;;;;;;7.03;81.86;102043.66;7321142;19;19982;-66
2024/01/20 10:24:08;;;;;;;;;;;;;;;7.08;81.79;102049.44;7318062;19;19919;-67
2024/01/20 10:26:41;;;;;;;;;;;;;;;7.09;81.60;102038.03;7316369;19;19926;-66
2024/01/20 10:29:09;;;;;;;;;;;;;;;7.12;81.03;102036.97;7321866;19;19915;-67
2024/01/20 10:31:36;;;;;;;;;;;;;;;7.21;81.19;102046.88;7322697;19;20790;-66
2024/01/20 10:34:03;;;;;;;;;;;;;;;7.24;81.61;102042.25;7327977;19;19919;-68
2024/01/20 10:36:31;;;;;;;;;;;;;;;7.28;80.62;102040.28;7320385;19;19923;-66
2024/01/20 10:39:00;;;;;;;;;;;;;;;7.34;80.80;102033.78;7334357;19;19927;-66
2024/01/20 10:41:27;;;;;;;;;;;;;;;7.37;79.82;102044.06;7328253;19;20284;-67
2024/01/20 10:44:02;;;;;;;;;;;;;;;7.36;79.29;102043.25;7329323;19;19919;-67
2024/01/20 10:46:31;;;;;;;;;;;;;;;7.38;78.78;102046.56;7316642;19;19923;-67
2024/01/20 10:49:02;;;;;;;;;;;;;;;7.33;79.28;102046.03;7319058;19;19922;-69
2024/01/20 10:51:30;;;;;;;;;;;;;;;7.37;78.83;102051.91;7333047;19;20139;-67
2024/01/20 10:53:58;;;;;;;;;;;;;;;7.41;78.89;102050.78;7326753;19;19923;-66
2024/01/20 10:56:26;;;;;;;;;;;;;;;7.44;78.72;102050.56;7330111;19;19919;-67
2024/01/20 10:59:09;;;;;;;;;;;;;;;7.46;78.81;102049.53;7336051;19;20799;-67
2024/01/20 11:01:37;;;;;;;;;;;;;;;7.52;78.55;102043.88;7337901;19;19926;-66
2024/01/20 11:04:04;;;;;;;;;;;;;;;7.62;78.67;102046.69;7326209;19;19926;-66
2024/01/20 11:06:31;;;;;;;;;;;;;;;7.65;78.25;102051.75;7324096;19;19923;-66
2024/01/20 11:09:01;;;;;;;;;;;;;;;7.66;78.11;102051.66;7326440;19;21785;-65
2024/01/20 11:11:29;;;;;;;;;;;;;;;7.72;78.40;102050.38;7327103;19;19919;-66
2024/01/20 11:14:01;;;;;;;;;;;;;;;7.79;78.05;102053.44;7321294;19;20938;-66
2024/01/20 11:16:29;;;;;;;;;;;;;;;7.90;77.55;102043.91;7320086;19;20229;-65
2024/01/20 11:19:09;;;;;;;;;;;;;;;7.94;77.41;102041.91;7330698;19;20369;-67
2024/01/20 11:21:36;;;;;;;;;;;;;;;7.98;77.32;102046.81;7333714;19;19933;-66
2024/01/20 11:24:04;;;;;;;;;;;;;;;7.95;76.27;102031.31;7325672;19;19933;-66
2024/01/20 11:26:33;;;;;;;;;;;;;;;7.91;75.77;102032.47;7334587;19;19954;-67
2024/01/20 11:29:01;;;;;;;;;;;;;;;7.95;75.74;102030.47;7329036;19;20630;-66
2024/01/20 11:31:30;;;;;;;;;;;;;;;8.05;76.89;102031.53;7322722;19;20542;-68
2024/01/20 11:33:58;;;;;;;;;;;;;;;8.05;76.05;102032.38;7326905;19;20310;-68
2024/01/20 11:36:29;;;;;;;;;;;;;;;8.10;75.44;102030.25;7328939;19;20300;-68
2024/01/20 11:38:57;;;;;;;;;;;;;;;8.09;74.59;102023.34;7316569;19;19931;-66
2024/01/20 11:41:24;;;;;;;;;;;;;;;8.13;74.58;102010.84;7321311;19;20830;-67
2024/01/20 11:43:51;;;;;;;;;;;;;;;8.26;75.75;101997.72;7321771;19;20391;-68
2024/01/20 11:46:22;;;;;;;;;;;;;;;8.22;74.05;101988.41;7330127;19;19930;-68
2024/01/20 11:48:53;;;;;;;;;;;;;;;8.24;73.91;102004.84;7329898;19;20439;-67
2024/01/20 11:51:20;;;;;;;;;;;;;;;8.39;76.53;101999.38;7317739;19;19914;-67
2024/01/20 11:53:47;;;;;;;;;;;;;;;8.44;76.31;102005.13;7319217;19;19918;-66
2024/01/20 11:56:15;;;;;;;;;;;;;;;8.46;74.12;101992.75;7326228;19;19919;-66
2024/01/20 11:58:42;;;;;;;;;;;;;;;8.46;72.98;101995.38;7338506;19;19922;-66
2024/01/20 12:01:09;;;;;;;;;;;;;;;8.55;74.61;101991.25;7337062;19;19925;-67
2024/01/20 12:03:36;;;;;;;;;;;;;;;8.57;73.21;101987.59;7338185;19;20029;-67
2024/01/20 12:06:05;;;;;;;;;;;;;;;8.55;71.58;101989.47;7320641;19;19923;-66
2024/01/20 12:08:33;;;;;;;;;;;;;;;8.55;71.95;101980.75;7314876;19;19922;-68
2024/01/20 12:11:00;;;;;;;;;;;;;;;8.56;72.10;101983.28;7332628;19;19918;-71
2024/01/20 12:13:32;;;;;;;;;;;;;;;8.64;75.14;101982.72;7327751;19;19978;-68
2024/01/20 12:15:59;;;;;;;;;;;;;;;8.78;75.33;101977.31;7315361;19;20629;-68
2024/01/20 12:18:27;;;;;;;;;;;;;;;9.03;79.70;101973.72;7330404;19;19990;-70
2024/01/20 12:20:54;;;;;;;;;;;;;;;9.08;71.64;101970.75;7319353;19;19934;-67
2024/01/20 12:23:21;;;;;;;;;;;;;;;9.06;70.29;101975.25;7323059;19;21089;-67
2024/01/20 12:25:54;;;;;;;;;;;;;;;8.96;68.79;101965.44;7321774;19;20577;-66
2024/01/20 12:28:21;;;;;;;;;;;;;;;8.91;68.40;101970.19;7320693;19;20025;-69
2024/01/20 12:30:48;;;;;;;;;;;;;;;8.90;68.41;101955.41;7328504;19;19922;-67
2024/01/20 12:33:15;;;;;;;;;;;;;;;8.83;68.35;101955.97;7328277;19;20006;-67
2024/01/20 12:35:42;;;;;;;;;;;;;;;8.77;68.57;101948.56;7322406;19;19933;-67
2024/01/20 12:38:09;;;;;;;;;;;;;;;8.79;69.27;101947.47;7330659;19;21621;-67
2024/01/20 12:40:36;;;;;;;;;;;;;;;8.71;69.07;101943.75;7324820;19;19942;-68
2024/01/20 12:43:03;;;;;;;;;;;;;;;8.68;68.79;101931.72;7334714;19;19926;-68
2024/01/20 12:45:33;;;;;;;;;;;;;;;8.69;68.92;101928.13;7326568;19;19933;-67
2024/01/20 12:48:00;;;;;;;;;;;;;;;8.66;68.96;101924.91;7325693;19;19922;-67
2024/01/20 12:50:28;;;;;;;;;;;;;;;8.62;69.51;101937.41;7332176;19;19937;-68